Time;durP1;ratioP1;P1;durP2;ratioP2;P2;SDS_P1;SDS_P2;PMS_P1;PMS_P2;Temp;Humidity;BMP_temperature;BMP_pressure;BME280_temperature;BME280_humidity;BME280_pressure;Samples;Min_cycle;Max_cycle;Signal;HPM_P1;HPM_P2
2023/11/30 00:01:52;;;;;;;16.60;11.77;;;;;;;0.82;100.00;94848.28;5027178;28;20037;-66
2023/11/30 00:04:17;;;;;;;16.63;11.82;;;;;;;0.68;100.00;94834.50;5027632;28;20029;-66
2023/11/30 00:06:43;;;;;;;13.77;12.38;;;;;;;0.62;100.00;94837.47;5023414;28;20037;-66
2023/11/30 00:09:08;;;;;;;23.77;14.93;;;;;;;0.71;100.00;94826.53;5022544;28;20438;-66
2023/11/30 00:11:33;;;;;;;45.05;26.92;;;;;;;0.68;100.00;94821.56;5026175;28;20108;-66
2023/11/30 00:13:59;;;;;;;15.02;12.65;;;;;;;0.66;100.00;94819.97;5023330;28;20025;-66
2023/11/30 00:16:24;;;;;;;47.55;27.48;;;;;;;0.62;100.00;94821.94;5024748;28;20025;-66
2023/11/30 00:18:49;;;;;;;21.15;15.98;;;;;;;0.62;100.00;94810.75;5025164;28;20017;-66
2023/11/30 00:21:15;;;;;;;29.73;17.88;;;;;;;0.57;100.00;94809.31;5022258;28;20033;-66
2023/11/30 00:23:40;;;;;;;14.35;12.10;;;;;;;0.66;100.00;94813.06;5025221;28;20432;-66
2023/11/30 00:26:06;;;;;;;21.30;13.80;;;;;;;0.60;100.00;94804.84;5025148;28;20029;-66
2023/11/30 00:28:31;;;;;;;11.38;9.23;;;;;;;0.65;100.00;94785.47;5023406;28;20036;-66
2023/11/30 00:30:56;;;;;;;14.18;12.40;;;;;;;0.74;100.00;94773.66;5021719;28;20079;-66
2023/11/30 00:33:22;;;;;;;12.25;10.80;;;;;;;0.88;100.00;94769.28;5028758;28;20029;-66
2023/11/30 00:35:47;;;;;;;14.02;10.43;;;;;;;0.81;100.00;94755.91;5028914;28;20025;-66
2023/11/30 00:38:13;;;;;;;7.70;6.93;;;;;;;0.61;100.00;94741.75;5024498;28;20075;-66
2023/11/30 00:40:39;;;;;;;13.25;9.80;;;;;;;0.51;100.00;94752.72;5025170;28;20018;-66
2023/11/30 00:43:05;;;;;;;10.07;8.48;;;;;;;0.47;100.00;94745.28;5025779;28;20057;-66
2023/11/30 00:45:30;;;;;;;15.07;11.48;;;;;;;0.39;100.00;94749.19;5018503;28;20037;-66
2023/11/30 00:47:56;;;;;;;16.17;11.57;;;;;;;0.52;100.00;94738.03;5029279;28;20025;-66
2023/11/30 00:50:21;;;;;;;10.75;6.65;;;;;;;0.48;100.00;94734.00;5010296;28;20137;-66
2023/11/30 00:52:47;;;;;;;36.10;16.48;;;;;;;0.52;100.00;94715.53;5023969;28;20108;-67
2023/11/30 00:55:12;;;;;;;23.55;13.35;;;;;;;0.54;100.00;94715.44;5025303;28;20030;-69
2023/11/30 00:57:38;;;;;;;44.55;20.50;;;;;;;0.53;100.00;94709.41;5021855;28;20025;-66
2023/11/30 01:00:05;;;;;;;35.35;17.52;;;;;;;0.50;100.00;94703.63;5024901;28;20400;-66
2023/11/30 01:02:31;;;;;;;27.85;15.35;;;;;;;0.56;100.00;94698.88;5028206;28;20021;-66
2023/11/30 01:04:57;;;;;;;22.77;14.10;;;;;;;0.46;100.00;94687.47;5021582;28;20135;-67
2023/11/30 01:07:22;;;;;;;9.23;7.32;;;;;;;0.50;100.00;94680.31;5024479;28;20021;-66
2023/11/30 01:09:48;;;;;;;16.40;10.18;;;;;;;0.43;100.00;94678.13;5022423;28;20103;-66
2023/11/30 01:12:13;;;;;;;33.85;15.80;;;;;;;0.39;100.00;94683.63;5027407;28;20025;-66
2023/11/30 01:14:40;;;;;;;24.30;14.02;;;;;;;0.35;100.00;94671.84;5021017;28;20375;-66
2023/11/30 01:17:05;;;;;;;10.40;8.98;;;;;;;0.39;100.00;94647.38;5026384;28;21678;-66
2023/11/30 01:19:31;;;;;;;16.80;14.93;;;;;;;0.44;100.00;94642.72;5026611;28;20022;-66
2023/11/30 01:21:56;;;;;;;30.45;23.25;;;;;;;0.48;100.00;94638.97;5029481;28;20467;-66
2023/11/30 01:24:22;;;;;;;17.58;11.25;;;;;;;0.48;100.00;94622.63;5033365;28;20032;-67
2023/11/30 01:26:48;;;;;;;109.13;43.80;;;;;;;0.54;100.00;94625.59;5029564;28;20562;-66
2023/11/30 01:29:14;;;;;;;29.67;16.02;;;;;;;0.53;100.00;94613.56;5029044;28;20105;-66
2023/11/30 01:31:40;;;;;;;9.15;8.25;;;;;;;0.52;100.00;94598.16;5029245;28;20022;-66
2023/11/30 01:34:05;;;;;;;9.25;8.35;;;;;;;0.46;100.00;94594.22;5026394;28;20093;-66
2023/11/30 01:36:30;;;;;;;10.40;9.43;;;;;;;0.47;100.00;94595.06;5029336;28;20025;-66
2023/11/30 01:38:56;;;;;;;10.50;9.40;;;;;;;0.47;100.00;94576.94;5029462;28;20072;-66
2023/11/30 01:41:21;;;;;;;17.52;11.23;;;;;;;0.49;100.00;94578.47;5016855;28;20087;-66
2023/11/30 01:43:47;;;;;;;11.57;9.00;;;;;;;0.52;100.00;94577.44;5026235;28;20024;-66
2023/11/30 01:46:13;;;;;;;7.75;6.95;;;;;;;0.52;100.00;94569.66;5026784;28;20780;-66
2023/11/30 01:48:40;;;;;;;13.35;11.43;;;;;;;0.60;100.00;94545.81;5034532;28;20025;-66
2023/11/30 01:51:08;;;;;;;10.55;9.00;;;;;;;0.60;100.00;94545.81;5030300;28;20036;-66
2023/11/30 01:53:38;;;;;;;11.70;10.18;;;;;;;0.61;100.00;94550.88;5026336;28;20050;-66
2023/11/30 01:56:08;;;;;;;15.63;11.57;;;;;;;0.59;100.00;94541.56;5020061;28;20948;-66
2023/11/30 01:58:34;;;;;;;9.25;8.38;;;;;;;0.56;100.00;94527.91;5024396;28;20030;-67
2023/11/30 02:01:00;;;;;;;8.18;7.57;;;;;;;0.58;100.00;94527.78;5030010;28;20033;-66
2023/11/30 02:03:26;;;;;;;9.35;8.55;;;;;;;0.62;100.00;94520.63;5026759;28;20029;-66
2023/11/30 02:05:52;;;;;;;9.85;8.95;;;;;;;0.58;100.00;94520.00;5027206;28;20405;-66
2023/11/30 02:08:17;;;;;;;9.25;8.55;;;;;;;0.59;100.00;94513.06;5028443;28;20029;-66
2023/11/30 02:10:43;;;;;;;10.95;9.95;;;;;;;0.57;100.00;94511.44;5031145;28;20026;-66
2023/11/30 02:13:09;;;;;;;10.10;9.20;;;;;;;0.66;100.00;94496.16;5031200;28;20557;-66
2023/11/30 02:15:34;;;;;;;9.80;9.00;;;;;;;0.61;100.00;94496.47;5027490;28;20111;-66
2023/11/30 02:18:00;;;;;;;9.00;8.30;;;;;;;0.75;100.00;94489.47;5031635;28;20120;-66
2023/11/30 02:20:25;;;;;;;9.98;9.07;;;;;;;0.74;100.00;94474.88;5024516;28;20025;-66
2023/11/30 02:22:51;;;;;;;9.13;8.27;;;;;;;0.62;100.00;94486.94;5028965;28;20032;-66
2023/11/30 02:25:16;;;;;;;9.00;8.18;;;;;;;0.60;100.00;94470.69;5024047;28;20037;-66
2023/11/30 02:27:42;;;;;;;11.30;10.07;;;;;;;0.61;100.00;94477.53;5024762;28;20021;-66
2023/11/30 02:30:08;;;;;;;8.95;7.80;;;;;;;0.58;100.00;94457.84;5024228;28;20025;-66
2023/11/30 02:32:33;;;;;;;8.05;7.40;;;;;;;0.57;100.00;94438.91;5028882;28;20401;-66
2023/11/30 02:35:00;;;;;;;8.65;7.95;;;;;;;0.66;100.00;94434.81;5028427;28;20033;-66
2023/11/30 02:37:25;;;;;;;9.43;8.63;;;;;;;0.59;100.00;94437.97;5025789;28;20037;-66
2023/11/30 02:39:50;;;;;;;10.02;9.13;;;;;;;0.59;100.00;94431.00;5032967;28;20078;-66
2023/11/30 02:42:16;;;;;;;8.68;7.97;;;;;;;0.55;100.00;94414.88;5024857;28;20052;-66
2023/11/30 02:44:41;;;;;;;8.30;7.60;;;;;;;0.55;100.00;94412.28;5027482;28;20036;-66
2023/11/30 02:47:07;;;;;;;7.93;7.22;;;;;;;0.52;100.00;94404.72;5027301;28;20033;-66
2023/11/30 02:49:32;;;;;;;8.57;7.88;;;;;;;0.49;100.00;94393.78;5043924;28;20100;-66
2023/11/30 02:51:57;;;;;;;9.27;8.48;;;;;;;0.53;100.00;94398.59;5026170;28;20045;-66
2023/11/30 02:54:24;;;;;;;9.52;8.68;;;;;;;0.58;100.00;94382.72;5025816;28;20045;-66
2023/11/30 02:56:49;;;;;;;9.27;8.43;;;;;;;0.72;100.00;94376.50;5029527;28;20470;-66
2023/11/30 02:59:15;;;;;;;9.48;8.77;;;;;;;0.67;100.00;94376.03;5026100;28;20060;-66
2023/11/30 03:01:44;;;;;;;10.65;9.75;;;;;;;0.76;100.00;94372.75;5028844;28;20108;-66
2023/11/30 03:04:09;;;;;;;10.48;9.57;;;;;;;0.70;100.00;94361.09;5024575;28;20021;-66
2023/11/30 03:06:35;;;;;;;12.75;10.85;;;;;;;0.75;100.00;94360.75;5025471;28;20420;-66
2023/11/30 03:09:00;;;;;;;10.00;9.10;;;;;;;0.71;100.00;94361.91;5024208;28;20029;-66
2023/11/30 03:11:25;;;;;;;9.18;8.38;;;;;;;0.75;100.00;94347.78;5029178;28;20025;-67
2023/11/30 03:13:51;;;;;;;7.65;6.95;;;;;;;0.77;100.00;94337.31;5025313;28;20042;-66
2023/11/30 03:16:27;;;;;;;8.93;7.45;;;;;;;0.81;100.00;94336.13;5027364;28;20034;-66
2023/11/30 03:18:52;;;;;;;7.63;7.03;;;;;;;0.71;100.00;94338.59;5025394;28;20048;-66
2023/11/30 03:21:19;;;;;;;8.10;7.35;;;;;;;0.69;100.00;94332.72;5025766;28;20030;-66
2023/11/30 03:23:44;;;;;;;8.50;7.80;;;;;;;0.74;100.00;94338.38;5024382;28;20032;-66
2023/11/30 03:26:10;;;;;;;9.18;8.07;;;;;;;0.78;100.00;94326.84;5021958;28;20030;-66
2023/11/30 03:28:36;;;;;;;7.78;7.18;;;;;;;0.83;100.00;94337.69;5024523;28;20502;-66
2023/11/30 03:31:02;;;;;;;7.72;7.03;;;;;;;0.88;100.00;94323.56;5027424;28;20022;-66
2023/11/30 03:33:27;;;;;;;7.10;6.60;;;;;;;0.90;100.00;94326.84;5022328;28;20029;-66
2023/11/30 03:35:52;;;;;;;6.72;6.30;;;;;;;1.00;100.00;94335.59;5022190;28;20029;-66
2023/11/30 03:38:18;;;;;;;16.17;14.07;;;;;;;0.90;100.00;94345.00;5020446;28;20038;-66
2023/11/30 03:40:43;;;;;;;24.67;22.08;;;;;;;0.86;100.00;94359.94;5021106;28;20021;-66
2023/11/30 03:43:09;;;;;;;31.35;27.65;;;;;;;0.87;100.00;94350.41;5022867;28;20029;-66
2023/11/30 03:45:34;;;;;;;21.45;19.05;;;;;;;0.87;100.00;94353.00;5010998;28;20026;-67
2023/11/30 03:48:00;;;;;;;11.18;9.70;;;;;;;0.90;100.00;94353.59;5026445;28;20021;-66
2023/11/30 03:50:26;;;;;;;8.30;7.60;;;;;;;0.93;100.00;94340.41;5025136;28;20029;-66
2023/11/30 03:52:51;;;;;;;8.57;7.88;;;;;;;1.08;100.00;94322.84;5024966;28;20050;-67
2023/11/30 03:55:18;;;;;;;23.85;18.17;;;;;;;0.96;100.00;94331.56;5020444;28;20115;-67
2023/11/30 03:57:43;;;;;;;9.77;8.88;;;;;;;1.09;100.00;94308.94;5022046;28;20033;-66
2023/11/30 04:00:12;;;;;;;11.55;10.50;;;;;;;1.01;100.00;94319.09;5021342;28;20021;-66
2023/11/30 04:02:38;;;;;;;8.43;7.72;;;;;;;1.08;100.00;94307.31;5025011;28;20045;-66
2023/11/30 04:05:05;;;;;;;9.10;8.30;;;;;;;1.03;100.00;94301.66;5025847;28;20057;-66
2023/11/30 04:07:31;;;;;;;11.07;10.07;;;;;;;1.02;100.00;94305.19;5025741;28;20048;-66
2023/11/30 04:09:57;;;;;;;9.35;8.50;;;;;;;1.02;100.00;94293.97;5027111;28;20088;-66
2023/11/30 04:12:23;;;;;;;8.65;7.95;;;;;;;1.09;100.00;94279.59;5020880;28;20044;-66
2023/11/30 04:14:49;;;;;;;9.25;8.45;;;;;;;1.07;100.00;94281.50;5028190;28;21003;-67
2023/11/30 04:17:14;;;;;;;14.00;12.70;;;;;;;1.03;100.00;94283.50;5029147;28;20033;-66
2023/11/30 04:19:40;;;;;;;15.88;14.38;;;;;;;1.01;100.00;94285.41;5021189;28;20034;-67
2023/11/30 04:22:06;;;;;;;13.48;12.27;;;;;;;1.04;100.00;94286.91;5029327;28;20390;-67
2023/11/30 04:24:31;;;;;;;14.02;12.70;;;;;;;1.04;100.00;94285.16;5030141;28;20041;-66
2023/11/30 04:26:57;;;;;;;12.70;11.60;;;;;;;1.03;100.00;94269.72;5031022;28;20025;-67
2023/11/30 04:29:22;;;;;;;11.65;10.70;;;;;;;1.05;100.00;94271.25;5028410;28;20493;-66
2023/11/30 04:31:47;;;;;;;12.63;11.45;;;;;;;1.09;100.00;94259.69;5028194;28;20490;-67
2023/11/30 04:34:13;;;;;;;12.05;11.05;;;;;;;1.12;100.00;94253.47;5021391;28;20030;-66
2023/11/30 04:36:38;;;;;;;18.85;16.98;;;;;;;1.33;100.00;94235.38;5024826;28;20547;-66
2023/11/30 04:39:04;;;;;;;14.10;12.80;;;;;;;1.33;100.00;94235.38;5023572;28;20029;-67
2023/11/30 04:41:29;;;;;;;11.98;10.90;;;;;;;1.33;100.00;94240.56;5021822;28;20050;-66
2023/11/30 04:43:55;;;;;;;11.73;10.80;;;;;;;1.25;100.00;94246.34;5029088;28;20052;-67
2023/11/30 04:46:20;;;;;;;11.75;10.82;;;;;;;1.24;100.00;94241.31;5019444;28;20629;-67
2023/11/30 04:48:46;;;;;;;10.85;9.95;;;;;;;1.25;100.00;94238.56;5028243;28;20538;-66
2023/11/30 04:51:11;;;;;;;11.15;10.18;;;;;;;1.27;100.00;94247.06;5023996;28;20057;-64
2023/11/30 04:53:37;;;;;;;9.48;8.75;;;;;;;1.40;100.00;94231.34;5022218;28;20033;-66
2023/11/30 04:56:02;;;;;;;10.07;9.35;;;;;;;1.36;100.00;94236.94;5023167;28;20132;-66
2023/11/30 04:58:28;;;;;;;10.25;9.45;;;;;;;1.32;100.00;94228.56;5030540;28;20033;-66
2023/11/30 05:00:53;;;;;;;11.88;10.95;;;;;;;1.32;100.00;94240.69;5033741;28;20030;-67
2023/11/30 05:03:18;;;;;;;10.25;9.35;;;;;;;1.43;100.00;94222.50;5026148;28;20108;-66
2023/11/30 05:05:44;;;;;;;10.15;9.35;;;;;;;1.41;100.00;94232.19;5021153;28;20498;-66
2023/11/30 05:08:09;;;;;;;11.73;10.30;;;;;;;1.49;100.00;94234.97;5035694;28;20033;-67
2023/11/30 05:10:34;;;;;;;10.10;9.30;;;;;;;1.38;100.00;94229.84;5028465;28;20096;-66
2023/11/30 05:13:00;;;;;;;10.18;9.18;;;;;;;1.46;100.00;94218.88;5026719;28;20390;-67
2023/11/30 05:15:25;;;;;;;9.93;9.02;;;;;;;1.48;100.00;94210.00;5025222;28;20032;-67
2023/11/30 05:17:51;;;;;;;9.48;8.68;;;;;;;1.49;100.00;94198.66;5028517;28;20094;-67
2023/11/30 05:20:16;;;;;;;11.10;10.15;;;;;;;1.53;100.00;94194.06;5026383;28;20017;-67
2023/11/30 05:22:42;;;;;;;10.95;9.98;;;;;;;1.49;100.00;94188.28;5027970;28;20032;-67
2023/11/30 05:25:07;;;;;;;12.30;10.27;;;;;;;1.51;100.00;94183.00;5028938;28;20029;-67
2023/11/30 05:27:33;;;;;;;8.52;7.82;;;;;;;1.52;100.00;94192.44;5028496;28;20075;-67
2023/11/30 05:29:58;;;;;;;9.57;8.88;;;;;;;1.52;100.00;94195.03;5027529;28;20037;-67
2023/11/30 05:32:24;;;;;;;8.77;8.07;;;;;;;1.55;100.00;94194.78;5031222;28;20030;-67
2023/11/30 05:34:51;;;;;;;8.18;7.47;;;;;;;1.60;100.00;94186.63;5027449;28;20124;-67
2023/11/30 05:37:17;;;;;;;8.65;7.93;;;;;;;1.60;100.00;94187.44;5028509;28;20046;-67
2023/11/30 05:39:42;;;;;;;9.55;8.60;;;;;;;1.64;100.00;94175.03;5027581;28;20017;-67
2023/11/30 05:42:09;;;;;;;10.10;9.23;;;;;;;1.66;100.00;94180.94;5033825;28;20083;-67
2023/11/30 05:44:36;;;;;;;9.45;8.70;;;;;;;1.67;100.00;94179.97;5031013;28;20025;-66
2023/11/30 05:47:01;;;;;;;11.20;10.30;;;;;;;1.67;100.00;94200.72;5026251;28;20052;-66
2023/11/30 05:49:27;;;;;;;11.23;10.30;;;;;;;1.68;100.00;94179.88;5026816;28;20022;-68
2023/11/30 05:51:52;;;;;;;11.50;10.40;;;;;;;1.69;100.00;94184.09;5026475;28;20042;-67
2023/11/30 05:54:18;;;;;;;10.05;9.25;;;;;;;1.70;100.00;94183.16;5026078;28;20060;-67
2023/11/30 05:56:43;;;;;;;10.73;9.75;;;;;;;1.80;100.00;94175.44;5022175;28;20031;-67
2023/11/30 05:59:09;;;;;;;22.92;20.65;;;;;;;1.81;100.00;94165.88;5028307;28;20109;-67
2023/11/30 06:01:34;;;;;;;15.35;13.95;;;;;;;1.82;100.00;94162.31;5027583;28;20399;-67
2023/11/30 06:04:00;;;;;;;17.30;15.70;;;;;;;1.85;100.00;94172.44;5023987;28;20080;-67
2023/11/30 06:06:25;;;;;;;12.35;11.25;;;;;;;1.81;100.00;94165.88;5024272;28;20494;-67
2023/11/30 06:08:51;;;;;;;11.27;10.27;;;;;;;1.79;100.00;94175.56;5028352;28;20102;-67
2023/11/30 06:11:16;;;;;;;11.88;10.88;;;;;;;1.79;100.00;94184.19;5026466;28;20026;-66
2023/11/30 06:13:42;;;;;;;11.50;10.30;;;;;;;1.79;100.00;94184.19;5023662;28;20490;-67
2023/11/30 06:16:07;;;;;;;11.93;10.77;;;;;;;1.80;100.00;94193.59;5028946;28;20602;-66
2023/11/30 06:18:33;;;;;;;13.20;12.05;;;;;;;1.83;100.00;94180.38;5022455;28;20024;-67
2023/11/30 06:20:59;;;;;;;16.95;15.27;;;;;;;1.88;100.00;94182.59;5022275;28;20073;-66
2023/11/30 06:23:25;;;;;;;14.60;13.27;;;;;;;1.87;100.00;94186.13;5026811;28;20026;-66
2023/11/30 06:25:50;;;;;;;16.30;14.90;;;;;;;1.96;100.00;94176.75;5030900;28;20021;-66
2023/11/30 06:28:16;;;;;;;15.32;14.00;;;;;;;1.91;100.00;94161.59;5023781;28;20036;-66
2023/11/30 06:30:42;;;;;;;17.75;16.15;;;;;;;2.09;100.00;94150.59;5025971;28;20026;-66
2023/11/30 06:33:07;;;;;;;24.17;21.75;;;;;;;2.03;100.00;94164.09;5028473;28;20397;-65
2023/11/30 06:35:33;;;;;;;25.98;23.38;;;;;;;2.14;100.00;94164.03;5033084;28;20105;-65
2023/11/30 06:37:58;;;;;;;19.23;17.52;;;;;;;2.04;100.00;94173.53;5023417;28;20048;-65
2023/11/30 06:40:24;;;;;;;14.98;13.73;;;;;;;2.01;100.00;94185.00;5025565;28;20030;-64
2023/11/30 06:42:49;;;;;;;15.18;13.93;;;;;;;1.98;100.00;94186.06;5029554;28;20018;-65
2023/11/30 06:45:14;;;;;;;18.17;16.50;;;;;;;2.00;100.00;94191.16;5041472;28;20021;-64
2023/11/30 06:47:40;;;;;;;15.85;14.50;;;;;;;1.99;100.00;94179.94;5029545;28;20028;-65
2023/11/30 06:50:06;;;;;;;32.00;26.80;;;;;;;2.08;100.00;94174.91;5026950;28;20029;-65
2023/11/30 06:52:32;;;;;;;18.92;17.08;;;;;;;2.07;100.00;94184.50;5045161;28;20124;-65
2023/11/30 06:54:57;;;;;;;21.30;19.30;;;;;;;2.06;100.00;94174.22;5022764;28;20140;-65
2023/11/30 06:57:23;;;;;;;18.23;16.60;;;;;;;2.06;100.00;94171.63;5031517;28;20065;-66
2023/11/30 06:59:49;;;;;;;14.80;13.60;;;;;;;2.06;100.00;94174.22;5026373;28;20025;-65
2023/11/30 07:02:14;;;;;;;16.20;14.60;;;;;;;2.08;100.00;94169.72;5025222;28;20036;-65
2023/11/30 07:04:40;;;;;;;17.23;15.73;;;;;;;2.11;100.00;94178.09;5025199;28;20029;-66
2023/11/30 07:07:05;;;;;;;17.15;15.60;;;;;;;2.12;100.00;94168.53;5039418;28;20030;-65
2023/11/30 07:09:30;;;;;;;16.40;14.95;;;;;;;2.17;100.00;94176.78;5029805;28;20120;-64
2023/11/30 07:11:56;;;;;;;15.73;14.32;;;;;;;2.18;100.00;94168.03;5025707;28;20025;-66
2023/11/30 07:14:21;;;;;;;17.23;15.60;;;;;;;2.17;100.00;94171.56;5025358;28;20035;-65
2023/11/30 07:16:46;;;;;;;16.05;14.65;;;;;;;2.19;100.00;94172.28;5027528;28;20024;-65
2023/11/30 07:19:13;;;;;;;19.40;17.55;;;;;;;2.23;100.00;94172.84;5032260;28;20033;-64
2023/11/30 07:21:38;;;;;;;18.92;16.92;;;;;;;2.22;100.00;94166.81;5032692;28;20017;-64
2023/11/30 07:24:04;;;;;;;17.60;16.02;;;;;;;2.25;100.00;94163.97;5040920;28;20028;-64
2023/11/30 07:26:29;;;;;;;18.52;16.88;;;;;;;2.34;100.00;94164.16;5029035;28;20037;-65
2023/11/30 07:28:55;;;;;;;20.52;18.58;;;;;;;2.40;100.00;94146.25;5026835;28;20026;-65
2023/11/30 07:31:21;;;;;;;21.42;19.45;;;;;;;2.40;100.00;94161.03;5016161;28;20446;-64
2023/11/30 07:33:47;;;;;;;21.67;19.67;;;;;;;2.37;100.00;94148.31;5027886;28;20013;-65
2023/11/30 07:36:13;;;;;;;23.95;21.77;;;;;;;2.36;100.00;94159.66;5024902;28;20029;-64
2023/11/30 07:38:38;;;;;;;23.02;20.83;;;;;;;2.37;100.00;94156.91;5024972;28;20013;-65
2023/11/30 07:41:06;;;;;;;23.08;20.88;;;;;;;2.38;100.00;94166.34;5023289;28;20036;-64
2023/11/30 07:43:34;;;;;;;24.48;22.02;;;;;;;2.39;100.00;94178.38;5029049;28;20047;-64
2023/11/30 07:45:59;;;;;;;24.83;22.58;;;;;;;2.38;100.00;94179.34;5025978;28;20082;-65
2023/11/30 07:48:25;;;;;;;80.03;52.95;;;;;;;2.41;100.00;94173.88;5031059;28;20037;-65
2023/11/30 07:50:53;;;;;;;42.15;35.78;;;;;;;2.47;100.00;94192.50;5025399;28;20099;-64
2023/11/30 07:53:22;;;;;;;32.33;29.00;;;;;;;2.63;100.00;94184.25;5028655;28;20046;-65
2023/11/30 07:55:47;;;;;;;35.38;31.75;;;;;;;2.63;100.00;94179.03;5025812;28;20072;-64
2023/11/30 07:58:12;;;;;;;28.77;26.17;;;;;;;2.57;100.00;94165.63;5036788;28;20072;-64
2023/11/30 08:00:38;;;;;;;29.30;26.63;;;;;;;2.66;100.00;94168.38;5021686;28;20371;-65
2023/11/30 08:03:03;;;;;;;25.80;23.30;;;;;;;2.77;100.00;94152.72;5022958;28;20048;-64
2023/11/30 08:05:29;;;;;;;25.02;22.92;;;;;;;2.62;100.00;94174.81;5027204;28;20049;-65
2023/11/30 08:07:54;;;;;;;22.98;20.98;;;;;;;2.54;100.00;94165.91;5020315;28;20072;-65
2023/11/30 08:10:20;;;;;;;27.00;24.85;;;;;;;2.60;100.00;94181.91;5024842;28;20029;-65
2023/11/30 08:12:45;;;;;;;23.90;21.80;;;;;;;2.61;100.00;94167.97;5018195;28;20025;-65
2023/11/30 08:15:11;;;;;;;20.02;18.42;;;;;;;2.64;100.00;94167.69;5023989;28;20065;-65
2023/11/30 08:17:36;;;;;;;20.50;18.63;;;;;;;2.62;100.00;94170.41;5031311;28;20053;-65
2023/11/30 08:20:02;;;;;;;36.55;29.33;;;;;;;2.60;100.00;94177.50;5019994;28;20111;-65
2023/11/30 08:22:27;;;;;;;26.17;23.50;;;;;;;2.62;100.00;94172.19;5012795;28;20387;-65
2023/11/30 08:24:53;;;;;;;52.20;46.85;;;;;;;2.67;100.00;94180.41;5021519;28;20079;-65
2023/11/30 08:27:21;;;;;;;28.77;25.85;;;;;;;2.69;100.00;94194.94;5032027;28;20147;-65
2023/11/30 08:29:46;;;;;;;32.17;29.08;;;;;;;2.69;100.00;94199.31;5024685;28;20040;-64
2023/11/30 08:32:13;;;;;;;24.27;22.13;;;;;;;2.72;100.00;94212.88;5023494;28;20124;-65
2023/11/30 08:34:38;;;;;;;22.42;20.23;;;;;;;2.82;100.00;94204.28;5021015;28;20033;-64
2023/11/30 08:37:04;;;;;;;46.25;41.17;;;;;;;2.81;100.00;94210.44;5022129;28;20037;-65
2023/11/30 08:39:30;;;;;;;28.55;25.83;;;;;;;2.91;100.00;94187.91;5028100;28;20025;-64
2023/11/30 08:41:55;;;;;;;57.38;46.45;;;;;;;2.91;100.00;94189.66;5026380;28;20076;-64
2023/11/30 08:44:22;;;;;;;96.38;78.03;;;;;;;2.92;100.00;94191.31;5020661;28;20036;-65
2023/11/30 08:46:48;;;;;;;26.15;23.42;;;;;;;2.86;100.00;94185.69;5028828;28;20025;-65
2023/11/30 08:49:14;;;;;;;19.33;17.73;;;;;;;2.82;100.00;94171.31;5025288;28;20092;-64
2023/11/30 08:51:39;;;;;;;20.05;18.08;;;;;;;2.91;100.00;94179.28;5022670;28;20049;-64
2023/11/30 08:54:05;;;;;;;68.72;59.25;;;;;;;2.90;100.00;94180.22;5017537;28;20025;-64
2023/11/30 08:56:30;;;;;;;36.30;32.47;;;;;;;2.91;100.00;94180.09;5022262;28;20029;-65
2023/11/30 08:58:56;;;;;;;33.83;30.58;;;;;;;2.92;100.00;94196.50;5022495;28;20417;-65
2023/11/30 09:01:21;;;;;;;24.27;22.10;;;;;;;2.93;100.00;94201.59;5022916;28;20040;-65
2023/11/30 09:03:47;;;;;;;23.15;21.02;;;;;;;2.94;100.00;94199.81;5031824;28;20447;-65
2023/11/30 09:06:12;;;;;;;30.67;27.83;;;;;;;2.95;100.00;94188.44;5041919;28;20120;-64
2023/11/30 09:08:37;;;;;;;51.63;37.17;;;;;;;2.95;100.00;94180.66;5020927;28;20065;-65
2023/11/30 09:11:05;;;;;;;80.53;52.25;;;;;;;2.97;100.00;94179.56;5029202;28;20397;-65
2023/11/30 09:13:31;;;;;;;53.90;38.05;;;;;;;2.99;100.00;94177.66;5037443;28;20036;-65
2023/11/30 09:15:57;;;;;;;27.45;24.90;;;;;;;3.03;100.00;94167.81;5025285;28;20120;-65
2023/11/30 09:18:23;;;;;;;40.17;36.30;;;;;;;3.15;100.00;94168.53;5017164;28;20068;-65
2023/11/30 09:20:48;;;;;;;32.75;29.70;;;;;;;3.21;100.00;94161.97;5018867;28;20049;-65
2023/11/30 09:23:14;;;;;;;29.70;26.60;;;;;;;3.12;100.00;94167.00;5019140;28;20176;-65
2023/11/30 09:25:39;;;;;;;25.88;23.45;;;;;;;3.11;100.00;94165.38;5019161;28;20474;-65
2023/11/30 09:28:04;;;;;;;27.02;24.45;;;;;;;3.12;100.00;94169.59;5027839;28;20069;-65
2023/11/30 09:30:30;;;;;;;29.13;26.17;;;;;;;3.17;100.00;94163.19;5019688;28;20029;-65
2023/11/30 09:32:55;;;;;;;56.08;49.45;;;;;;;3.23;100.00;94157.47;5022465;28;20033;-65
2023/11/30 09:35:21;;;;;;;54.55;44.63;;;;;;;3.21;100.00;94159.38;5020593;28;20117;-65
2023/11/30 09:37:48;;;;;;;41.70;36.97;;;;;;;3.24;100.00;94159.91;5033957;28;20056;-65
2023/11/30 09:40:13;;;;;;;34.90;31.45;;;;;;;3.24;100.00;94154.72;5026555;28;20410;-65
2023/11/30 09:42:39;;;;;;;29.90;26.83;;;;;;;3.25;100.00;94161.56;5026719;28;20037;-65
2023/11/30 09:45:07;;;;;;;42.58;29.77;;;;;;;3.24;100.00;94159.91;5024931;28;20033;-64
2023/11/30 09:47:33;;;;;;;36.47;32.50;;;;;;;3.37;100.00;94154.44;5019822;28;20021;-64
2023/11/30 09:50:00;;;;;;;25.98;23.52;;;;;;;3.38;100.00;94169.09;5019719;28;20110;-64
2023/11/30 09:52:27;;;;;;;21.77;19.88;;;;;;;3.46;100.00;94158.03;5029366;28;20089;-65
2023/11/30 09:54:56;;;;;;;31.25;28.08;;;;;;;3.52;100.00;94159.25;5027875;28;20160;-65
2023/11/30 09:57:23;;;;;;;32.22;28.80;;;;;;;3.53;100.00;94164.31;5021445;28;20080;-65
2023/11/30 09:59:50;;;;;;;27.70;23.33;;;;;;;3.51;100.00;94150.63;5027453;28;20029;-64
2023/11/30 10:02:15;;;;;;;25.90;22.45;;;;;;;3.52;100.00;94156.66;5027484;28;20398;-65
2023/11/30 10:04:40;;;;;;;40.35;35.53;;;;;;;3.61;100.00;94158.44;5023320;28;20061;-64
2023/11/30 10:07:07;;;;;;;43.13;33.30;;;;;;;3.79;100.00;94142.97;5027235;28;20513;-64
2023/11/30 10:09:33;;;;;;;37.83;28.20;;;;;;;3.84;100.00;94140.75;5027667;28;20499;-65
2023/11/30 10:11:59;;;;;;;42.60;29.13;;;;;;;3.91;100.00;94130.63;5025234;28;20025;-64
2023/11/30 10:14:25;;;;;;;52.92;36.13;;;;;;;3.84;100.00;94138.16;5020037;28;20620;-65
2023/11/30 10:16:50;;;;;;;41.38;31.75;;;;;;;3.92;100.00;94140.06;5025301;28;20515;-64
2023/11/30 10:19:15;;;;;;;34.42;29.08;;;;;;;3.91;100.00;94148.00;5024618;28;20040;-65
2023/11/30 10:21:41;;;;;;;31.33;28.00;;;;;;;3.92;100.00;94153.09;5024280;28;20026;-65
2023/11/30 10:24:08;;;;;;;21.38;19.23;;;;;;;3.79;100.00;94148.16;5029220;28;20041;-64
2023/11/30 10:26:35;;;;;;;31.27;28.10;;;;;;;3.73;100.00;94149.53;5025745;28;20041;-64
2023/11/30 10:29:04;;;;;;;29.40;26.42;;;;;;;3.87;100.00;94150.09;5022404;28;20029;-65
2023/11/30 10:31:35;;;;;;;31.70;28.67;;;;;;;3.76;100.00;94145.00;5025032;28;20034;-64
2023/11/30 10:34:27;;;;;;;23.20;21.13;;;;;;;3.80;100.00;94152.41;5023515;28;20025;-65
2023/11/30 10:36:55;;;;;;;29.83;27.08;;;;;;;3.86;100.00;94151.00;5028776;28;20501;-64
2023/11/30 10:39:23;;;;;;;23.17;21.08;;;;;;;3.92;100.00;94147.88;5027571;28;20051;-64
2023/11/30 10:41:54;;;;;;;34.17;30.83;;;;;;;3.83;100.00;94148.69;5022089;28;20040;-64
2023/11/30 10:44:26;;;;;;;38.85;34.70;;;;;;;3.79;100.00;94147.34;5025846;28;20052;-65
2023/11/30 10:46:56;;;;;;;27.67;24.65;;;;;;;3.84;100.00;94137.31;5027452;28;20067;-65
2023/11/30 10:49:25;;;;;;;22.60;20.48;;;;;;;3.83;100.00;94133.06;5030159;28;20029;-65
2023/11/30 10:51:55;;;;;;;22.73;20.60;;;;;;;3.88;100.00;94128.28;5029891;28;20050;-65
2023/11/30 10:54:36;;;;;;;34.33;31.02;;;;;;;4.04;100.00;94112.09;5029292;28;20124;-65
2023/11/30 10:57:03;;;;;;;68.55;48.90;;;;;;;4.00;100.00;94108.94;5026394;28;20044;-65
2023/11/30 10:59:30;;;;;;;27.45;24.67;;;;;;;4.25;100.00;94098.84;5028375;28;20083;-64
2023/11/30 11:01:56;;;;;;;26.80;24.40;;;;;;;4.14;100.00;94101.66;5027403;28;20033;-65
2023/11/30 11:04:27;;;;;;;27.80;25.30;;;;;;;4.28;100.00;94097.75;5043813;28;20057;-64
2023/11/30 11:07:03;;;;;;;26.67;24.27;;;;;;;4.19;100.00;94109.00;5025306;28;20144;-64
2023/11/30 11:09:59;;;;;;;42.05;32.90;;;;;;;4.23;100.00;94103.38;5023385;28;20406;-64
2023/11/30 11:12:26;;;;;;;24.67;22.30;;;;;;;4.28;100.00;94105.56;5024091;28;20473;-65
2023/11/30 11:15:11;;;;;;;24.38;22.23;;;;;;;4.25;100.00;94111.88;5023887;28;20095;-65
2023/11/30 11:18:07;;;;;;;24.63;22.27;;;;;;;4.29;100.00;94110.63;5020331;28;20026;-65